Time;durP1;ratioP1;P1;durP2;ratioP2;P2;SDS_P1;SDS_P2;PMS_P1;PMS_P2;Temp;Humidity;BMP_temperature;BMP_pressure;BME280_temperature;BME280_humidity;BME280_pressure;Samples;Min_cycle;Max_cycle;Signal;HPM_P1;HPM_P2
2023/06/05 00:00:28;;;;;;;6.07;4.90;;;;;;;;;;5096612;28;20486;-82
2023/06/05 00:02:54;;;;;;;6.15;4.97;;;;;;;;;;5080222;28;20403;-82
2023/06/05 00:05:20;;;;;;;7.93;5.10;;;;;;;;;;5096649;28;20395;-82
2023/06/05 00:07:46;;;;;;;7.15;5.22;;;;;;;;;;5096560;28;20435;-82
2023/06/05 00:10:13;;;;;;;5.70;4.97;;;;;;;;;;5079683;28;20449;-82
2023/06/05 00:12:40;;;;;;;6.30;4.88;;;;;;;;;;5096281;28;20406;-82
2023/06/05 00:15:07;;;;;;;7.78;5.20;;;;;;;;;;5095616;28;20395;-82
2023/06/05 00:17:33;;;;;;;8.05;5.13;;;;;;;;;;5079669;28;20423;-82
2023/06/05 00:19:59;;;;;;;6.43;5.50;;;;;;;;;;5059266;28;20414;-83
2023/06/05 00:22:31;;;;;;;6.75;5.43;;;;;;;;;;5072475;28;20426;-82
2023/06/05 00:24:57;;;;;;;6.63;5.30;;;;;;;;;;5076031;28;20497;-82
2023/06/05 00:27:24;;;;;;;6.53;5.70;;;;;;;;;;5076166;28;20403;-82
2023/06/05 00:29:50;;;;;;;6.70;4.90;;;;;;;;;;5067595;28;20183;-82
2023/06/05 00:32:16;;;;;;;6.55;5.18;;;;;;;;;;5059943;28;20418;-82
2023/06/05 00:34:42;;;;;;;7.55;5.60;;;;;;;;;;5061095;28;20414;-82
2023/06/05 00:37:09;;;;;;;6.97;5.50;;;;;;;;;;5063675;28;20513;-82
2023/06/05 00:39:35;;;;;;;7.93;5.93;;;;;;;;;;5055694;28;20417;-82
2023/06/05 00:42:01;;;;;;;8.27;5.90;;;;;;;;;;5071449;28;20419;-83
2023/06/05 00:44:27;;;;;;;7.17;5.83;;;;;;;;;;5059087;28;20472;-82
2023/06/05 00:46:53;;;;;;;6.30;5.63;;;;;;;;;;5083956;28;20449;-82
2023/06/05 00:49:20;;;;;;;6.53;5.82;;;;;;;;;;5078297;28;20442;-82
2023/06/05 00:51:46;;;;;;;8.73;6.13;;;;;;;;;;5075592;28;20462;-82
2023/06/05 00:54:17;;;;;;;8.23;6.07;;;;;;;;;;5075270;28;20408;-82
2023/06/05 00:56:46;;;;;;;8.52;6.10;;;;;;;;;;5050554;28;20521;-82
2023/06/05 00:59:13;;;;;;;6.78;5.95;;;;;;;;;;5074296;28;20393;-82
2023/06/05 01:01:42;;;;;;;8.50;6.18;;;;;;;;;;5050701;28;20438;-82
2023/06/05 01:04:08;;;;;;;7.53;6.68;;;;;;;;;;5074836;28;20423;-82
2023/06/05 01:06:35;;;;;;;7.13;6.20;;;;;;;;;;5048353;28;20422;-82
2023/06/05 01:09:04;;;;;;;7.60;6.55;;;;;;;;;;5054355;28;20410;-82
2023/06/05 01:11:49;;;;;;;6.17;5.50;;;;;;;;;;5066233;28;20182;-82
2023/06/05 01:14:17;;;;;;;6.57;5.87;;;;;;;;;;5071428;28;20265;-82
2023/06/05 01:16:45;;;;;;;8.10;6.80;;;;;;;;;;5068346;28;20484;-82
2023/06/05 01:19:14;;;;;;;8.20;6.88;;;;;;;;;;5067364;28;20506;-82
2023/06/05 01:21:41;;;;;;;7.45;6.65;;;;;;;;;;5066012;28;20441;-82
2023/06/05 01:24:07;;;;;;;9.73;6.67;;;;;;;;;;5068292;28;20228;-82
2023/06/05 01:27:02;;;;;;;8.43;6.80;;;;;;;;;;5055694;28;20421;-83
2023/06/05 01:29:41;;;;;;;7.88;7.10;;;;;;;;;;5065094;28;20455;-82
2023/06/05 01:32:12;;;;;;;6.70;5.97;;;;;;;;;;5075895;28;20278;-83
2023/06/05 01:34:43;;;;;;;8.17;7.07;;;;;;;;;;5071917;28;20444;-83
2023/06/05 01:37:12;;;;;;;8.40;6.60;;;;;;;;;;5060030;28;20293;-83
2023/06/05 01:39:39;;;;;;;7.20;6.50;;;;;;;;;;5073874;28;20204;-83
2023/06/05 01:42:05;;;;;;;7.57;6.37;;;;;;;;;;5075591;28;20171;-82
2023/06/05 01:44:32;;;;;;;9.40;7.03;;;;;;;;;;5072237;28;20188;-83
2023/06/05 01:46:58;;;;;;;8.77;7.55;;;;;;;;;;5055640;28;20410;-83
2023/06/05 01:49:25;;;;;;;9.52;7.97;;;;;;;;;;5039787;28;20468;-83
2023/06/05 01:51:51;;;;;;;8.98;7.85;;;;;;;;;;5049024;28;20431;-83
2023/06/05 01:54:23;;;;;;;9.90;7.60;;;;;;;;;;5049210;28;20410;-83
2023/06/05 01:56:49;;;;;;;8.53;7.10;;;;;;;;;;5055464;28;20210;-83
2023/06/05 01:59:17;;;;;;;10.07;7.37;;;;;;;;;;5035145;28;20263;-83
2023/06/05 02:01:44;;;;;;;9.18;8.20;;;;;;;;;;5053184;28;20406;-82
2023/06/05 02:04:10;;;;;;;10.30;7.53;;;;;;;;;;5038527;28;20226;-83
2023/06/05 02:06:42;;;;;;;7.40;6.60;;;;;;;;;;5055029;28;20210;-83
2023/06/05 02:09:10;;;;;;;8.93;7.80;;;;;;;;;;5054483;28;20179;-83
2023/06/05 02:11:38;;;;;;;8.70;7.73;;;;;;;;;;5054910;28;20182;-83
2023/06/05 02:14:06;;;;;;;9.97;7.33;;;;;;;;;;5055174;28;20190;-83
2023/06/05 02:16:32;;;;;;;8.17;7.37;;;;;;;;;;5038906;28;20212;-83
2023/06/05 02:19:03;;;;;;;10.33;7.70;;;;;;;;;;5036763;28;20207;-83
2023/06/05 02:21:30;;;;;;;8.47;7.63;;;;;;;;;;5039199;28;20180;-83
2023/06/05 02:23:58;;;;;;;10.82;8.75;;;;;;;;;;5058253;28;20552;-83
2023/06/05 02:26:25;;;;;;;10.07;7.73;;;;;;;;;;5048937;28;20179;-83
2023/06/05 02:28:53;;;;;;;8.57;7.73;;;;;;;;;;5055663;28;20172;-83
2023/06/05 02:31:24;;;;;;;9.77;8.00;;;;;;;;;;5028766;28;20216;-83
2023/06/05 02:33:50;;;;;;;9.60;8.10;;;;;;;;;;5051694;28;20175;-83
2023/06/05 02:36:16;;;;;;;9.40;8.30;;;;;;;;;;5038912;28;20199;-83
2023/06/05 02:38:43;;;;;;;10.63;8.20;;;;;;;;;;5028587;28;20223;-83
2023/06/05 02:41:09;;;;;;;9.53;8.53;;;;;;;;;;5040774;28;20271;-83
2023/06/05 02:43:35;;;;;;;10.57;8.53;;;;;;;;;;5041722;28;20262;-83
2023/06/05 02:46:01;;;;;;;9.47;8.43;;;;;;;;;;5038285;28;20200;-83
2023/06/05 02:48:27;;;;;;;9.17;8.00;;;;;;;;;;5073935;28;20255;-82
2023/06/05 02:50:53;;;;;;;11.80;8.97;;;;;;;;;;5099018;28;20215;-83
2023/06/05 02:53:20;;;;;;;10.63;8.80;;;;;;;;;;5099263;28;20173;-83
2023/06/05 02:55:47;;;;;;;13.73;9.23;;;;;;;;;;5081984;28;20182;-83
2023/06/05 02:58:15;;;;;;;12.20;9.30;;;;;;;;;;5082228;28;20182;-83
2023/06/05 03:00:41;;;;;;;10.60;9.40;;;;;;;;;;5082291;28;20178;-83
2023/06/05 03:03:07;;;;;;;10.03;8.80;;;;;;;;;;5098580;28;20212;-83
2023/06/05 03:05:36;;;;;;;11.70;9.03;;;;;;;;;;5086009;28;20178;-83
2023/06/05 03:08:03;;;;;;;10.23;9.13;;;;;;;;;;5062381;28;20183;-83
2023/06/05 03:10:29;;;;;;;10.37;9.37;;;;;;;;;;5078572;28;20189;-83
2023/06/05 03:12:55;;;;;;;10.40;8.83;;;;;;;;;;5078372;28;20179;-83
2023/06/05 03:15:21;;;;;;;11.03;9.77;;;;;;;;;;5061661;28;20277;-83
2023/06/05 03:17:47;;;;;;;11.37;9.90;;;;;;;;;;5061796;28;20304;-83
2023/06/05 03:20:14;;;;;;;10.57;9.50;;;;;;;;;;5061448;28;20182;-83
2023/06/05 03:22:40;;;;;;;13.17;10.23;;;;;;;;;;5091782;28;20185;-82
2023/06/05 03:25:08;;;;;;;11.90;10.13;;;;;;;;;;5080968;28;20257;-83
2023/06/05 03:27:34;;;;;;;12.23;10.13;;;;;;;;;;5061653;28;20183;-82
2023/06/05 03:30:01;;;;;;;11.97;9.40;;;;;;;;;;5066881;28;20179;-82
2023/06/05 03:32:27;;;;;;;10.83;9.70;;;;;;;;;;5064053;28;20195;-83
2023/06/05 03:34:53;;;;;;;11.63;10.27;;;;;;;;;;5077295;28;20175;-83
2023/06/05 03:37:19;;;;;;;13.07;10.47;;;;;;;;;;5049824;28;20252;-83
2023/06/05 03:39:45;;;;;;;11.43;10.00;;;;;;;;;;5072861;28;20191;-83
2023/06/05 03:42:11;;;;;;;13.43;10.10;;;;;;;;;;5077683;28;20171;-83
2023/06/05 03:44:38;;;;;;;11.07;9.97;;;;;;;;;;5077577;28;20179;-83
2023/06/05 03:47:05;;;;;;;11.60;10.40;;;;;;;;;;5077009;28;20190;-82
2023/06/05 03:49:32;;;;;;;11.70;10.20;;;;;;;;;;5057495;28;20175;-83
2023/06/05 03:52:00;;;;;;;11.83;9.40;;;;;;;;;;5040982;28;20183;-83
2023/06/05 03:54:27;;;;;;;10.67;9.57;;;;;;;;;;5041116;28;20210;-82
2023/06/05 03:56:55;;;;;;;12.90;10.37;;;;;;;;;;5055936;28;20281;-83
2023/06/05 03:59:22;;;;;;;13.20;9.90;;;;;;;;;;5069859;28;20241;-83
2023/06/05 04:01:48;;;;;;;11.60;9.47;;;;;;;;;;5046129;28;20184;-83
2023/06/05 04:04:15;;;;;;;15.10;10.50;;;;;;;;;;5076491;22;20230;-76
2023/06/05 04:06:41;;;;;;;10.97;9.77;;;;;;;;;;5074510;28;20175;-87
2023/06/05 04:09:13;;;;;;;12.53;9.83;;;;;;;;;;5061005;28;20236;-87
2023/06/05 04:11:43;;;;;;;12.27;9.73;;;;;;;;;;5061897;28;20209;-87
2023/06/05 04:14:10;;;;;;;10.93;9.83;;;;;;;;;;5077369;28;20273;-87
2023/06/05 04:16:40;;;;;;;11.37;10.07;;;;;;;;;;5095360;28;20210;-86
2023/06/05 04:19:07;;;;;;;12.33;10.27;;;;;;;;;;5077738;28;20194;-87
2023/06/05 04:21:37;;;;;;;12.23;9.87;;;;;;;;;;5060933;28;20174;-87
2023/06/05 04:24:06;;;;;;;13.27;10.10;;;;;;;;;;5052779;28;20180;-87
2023/06/05 04:26:33;;;;;;;11.67;10.00;;;;;;;;;;5058265;28;20179;-87
2023/06/05 04:28:59;;;;;;;12.40;9.53;;;;;;;;;;5056977;28;20183;-86
2023/06/05 04:31:26;;;;;;;15.23;10.17;;;;;;;;;;5049730;28;20321;-86
2023/06/05 04:33:52;;;;;;;11.10;9.90;;;;;;;;;;5040707;28;20228;-87
2023/06/05 04:36:19;;;;;;;10.50;9.00;;;;;;;;;;5056692;28;20286;-87
2023/06/05 04:38:45;;;;;;;9.13;7.93;;;;;;;;;;5056338;28;20422;-78
2023/06/05 04:41:11;;;;;;;13.63;10.03;;;;;;;;;;5056922;28;20178;-78
2023/06/05 04:43:37;;;;;;;12.23;10.73;;;;;;;;;;5056980;28;20222;-78
2023/06/05 04:46:03;;;;;;;12.13;9.20;;;;;;;;;;5056697;28;20219;-78
2023/06/05 04:48:30;;;;;;;12.40;9.73;;;;;;;;;;5037155;28;20188;-78
2023/06/05 04:50:57;;;;;;;12.57;9.57;;;;;;;;;;5053375;28;20321;-78
2023/06/05 04:53:23;;;;;;;14.63;10.10;;;;;;;;;;5069006;28;20209;-78
2023/06/05 04:55:49;;;;;;;13.53;8.93;;;;;;;;;;5056781;28;20183;-78
2023/06/05 04:58:16;;;;;;;13.13;9.43;;;;;;;;;;5039650;28;20217;-78
2023/06/05 05:00:47;;;;;;;13.63;9.63;;;;;;;;;;5056654;28;20222;-78
2023/06/05 05:03:13;;;;;;;13.20;9.03;;;;;;;;;;5048966;28;20182;-78
2023/06/05 05:05:39;;;;;;;13.50;9.80;;;;;;;;;;5038061;28;20223;-78
2023/06/05 05:08:06;;;;;;;12.57;9.57;;;;;;;;;;5029004;28;20176;-78
2023/06/05 05:10:32;;;;;;;13.50;9.60;;;;;;;;;;5036844;28;20176;-78
2023/06/05 05:13:01;;;;;;;11.37;9.80;;;;;;;;;;5025391;28;20203;-75
2023/06/05 05:15:31;;;;;;;11.80;9.80;;;;;;;;;;5036407;28;20259;-77
2023/06/05 05:17:57;;;;;;;12.17;9.43;;;;;;;;;;5036110;28;20314;-75
2023/06/05 05:20:23;;;;;;;13.13;9.33;;;;;;;;;;5044021;28;20195;-76
2023/06/05 05:22:50;;;;;;;12.53;10.07;;;;;;;;;;5055382;28;20180;-76
2023/06/05 05:25:16;;;;;;;13.93;10.37;;;;;;;;;;5053847;28;20223;-76
2023/06/05 05:27:42;;;;;;;12.70;9.77;;;;;;;;;;5019971;28;20283;-76
2023/06/05 05:30:09;;;;;;;14.63;9.97;;;;;;;;;;5036802;28;20229;-88
2023/06/05 05:32:35;;;;;;;10.70;9.27;;;;;;;;;;5054231;28;20188;-87
2023/06/05 05:35:02;;;;;;;13.83;10.03;;;;;;;;;;5020458;28;20192;-87
2023/06/05 05:37:28;;;;;;;12.73;10.17;;;;;;;;;;5020058;28;20216;-87
2023/06/05 05:39:54;;;;;;;14.33;10.20;;;;;;;;;;5036056;28;20172;-87
2023/06/05 05:42:20;;;;;;;12.73;10.13;;;;;;;;;;5019758;28;20247;-87
2023/06/05 05:44:46;;;;;;;12.10;10.10;;;;;;;;;;5019842;28;20222;-76
2023/06/05 05:47:12;;;;;;;13.83;10.30;;;;;;;;;;5019851;28;20202;-76
2023/06/05 05:49:38;;;;;;;12.60;11.20;;;;;;;;;;5053143;28;20417;-76
2023/06/05 05:52:04;;;;;;;13.20;11.48;;;;;;;;;;5019177;28;20423;-76
2023/06/05 05:54:30;;;;;;;12.07;10.50;;;;;;;;;;5020139;28;20184;-76
2023/06/05 05:56:56;;;;;;;13.03;9.93;;;;;;;;;;5019813;28;20208;-76
2023/06/05 05:59:22;;;;;;;11.63;10.43;;;;;;;;;;5040423;28;20186;-76
2023/06/05 06:01:49;;;;;;;12.50;9.47;;;;;;;;;;5023509;28;20175;-88
2023/06/05 06:04:17;;;;;;;13.20;10.20;;;;;;;;;;5043013;28;20227;-87
2023/06/05 06:06:43;;;;;;;13.27;10.37;;;;;;;;;;5077978;28;20272;-87
2023/06/05 06:09:09;;;;;;;13.73;9.73;;;;;;;;;;5077630;28;20256;-88
2023/06/05 06:11:37;;;;;;;13.43;10.40;;;;;;;;;;5060304;28;20179;-88
2023/06/05 06:14:03;;;;;;;12.47;10.00;;;;;;;;;;5077280;28;20178;-86
2023/06/05 06:16:29;;;;;;;10.97;9.43;;;;;;;;;;5059430;28;20219;-87
2023/06/05 06:18:55;;;;;;;13.30;10.20;;;;;;;;;;5058967;28;20468;-79
2023/06/05 06:21:21;;;;;;;14.03;9.57;;;;;;;;;;5059565;28;20179;-79
2023/06/05 06:23:47;;;;;;;10.63;9.33;;;;;;;;;;5075852;28;20167;-79
2023/06/05 06:26:14;;;;;;;12.77;9.00;;;;;;;;;;5059355;28;20195;-79
2023/06/05 06:28:40;;;;;;;12.27;8.60;;;;;;;;;;5059558;28;20230;-79
2023/06/05 06:31:07;;;;;;;12.20;9.17;;;;;;;;;;5058959;28;20190;-79
2023/06/05 06:33:33;;;;;;;9.75;7.43;;;;;;;;;;5059074;28;20426;-79
2023/06/05 06:36:00;;;;;;;11.47;7.90;;;;;;;;;;5076783;28;20199;-79
2023/06/05 06:38:30;;;;;;;10.57;8.50;;;;;;;;;;5076882;28;20194;-79
2023/06/05 06:40:57;;;;;;;11.07;8.03;;;;;;;;;;5050638;28;20187;-79
2023/06/05 06:43:23;;;;;;;14.53;8.40;;;;;;;;;;5043003;28;20222;-79
2023/06/05 06:45:50;;;;;;;11.47;7.70;;;;;;;;;;5057891;28;20250;-79
2023/06/05 06:48:19;;;;;;;11.47;7.73;;;;;;;;;;5075672;28;20269;-79
2023/06/05 06:50:46;;;;;;;8.93;8.03;;;;;;;;;;5076332;28;20175;-79
2023/06/05 06:53:12;;;;;;;11.73;7.63;;;;;;;;;;5076400;28;20171;-87
2023/06/05 06:55:38;;;;;;;10.50;7.50;;;;;;;;;;5042175;28;20214;-87
2023/06/05 06:58:05;;;;;;;9.93;7.63;;;;;;;;;;5071393;28;20192;-88
2023/06/05 07:00:31;;;;;;;12.30;7.90;;;;;;;;;;5060395;28;20183;-87
2023/06/05 07:02:57;;;;;;;8.57;7.43;;;;;;;;;;5046723;28;20175;-87
2023/06/05 07:05:23;;;;;;;9.83;7.53;;;;;;;;;;5070534;28;20215;-88
2023/06/05 07:07:49;;;;;;;9.73;7.27;;;;;;;;;;5041013;28;20180;-88
2023/06/05 07:10:15;;;;;;;10.60;7.33;;;;;;;;;;5057177;28;20179;-80
2023/06/05 07:12:41;;;;;;;8.70;6.83;;;;;;;;;;5041336;28;20189;-79
2023/06/05 07:15:07;;;;;;;11.10;7.07;;;;;;;;;;5057985;28;20272;-79
2023/06/05 07:17:34;;;;;;;10.23;6.93;;;;;;;;;;5091743;28;20222;-79
2023/06/05 07:20:00;;;;;;;11.83;7.30;;;;;;;;;;5091925;28;20179;-79
2023/06/05 07:22:28;;;;;;;9.23;7.13;;;;;;;;;;5075915;28;20175;-79
2023/06/05 07:24:54;;;;;;;7.73;6.90;;;;;;;;;;5091694;28;20175;-77
2023/06/05 07:27:21;;;;;;;10.23;7.07;;;;;;;;;;5041616;28;20186;-77
2023/06/05 07:29:47;;;;;;;9.00;6.87;;;;;;;;;;5075711;28;20171;-77
2023/06/05 07:32:13;;;;;;;8.10;7.00;;;;;;;;;;5091750;28;20186;-77
2023/06/05 07:34:39;;;;;;;12.23;7.10;;;;;;;;;;5039525;28;20194;-77
2023/06/05 07:37:07;;;;;;;11.57;6.60;;;;;;;;;;5040967;28;20199;-77
2023/06/05 07:39:33;;;;;;;11.07;7.03;;;;;;;;;;5041721;28;20214;-77
2023/06/05 07:41:59;;;;;;;9.25;6.28;;;;;;;;;;5070327;28;20438;-79
2023/06/05 07:44:25;;;;;;;9.60;6.95;;;;;;;;;;5074889;28;20402;-79
2023/06/05 07:46:52;;;;;;;9.47;6.10;;;;;;;;;;5072410;28;20228;-79
2023/06/05 07:49:18;;;;;;;13.23;6.20;;;;;;;;;;5040985;28;20271;-79
2023/06/05 07:51:47;;;;;;;8.33;6.40;;;;;;;;;;5064211;28;20179;-79
2023/06/05 07:54:15;;;;;;;11.23;6.50;;;;;;;;;;5057574;28;20202;-79
2023/06/05 07:56:41;;;;;;;12.33;7.17;;;;;;;;;;5072496;28;20199;-79
2023/06/05 07:59:08;;;;;;;12.90;6.83;;;;;;;;;;5041350;28;20194;-79
2023/06/05 08:01:38;;;;;;;7.70;6.27;;;;;;;;;;5065467;28;20178;-79
2023/06/05 08:04:04;;;;;;;9.83;6.27;;;;;;;;;;5057106;28;20260;-79
2023/06/05 08:06:31;;;;;;;9.00;6.37;;;;;;;;;;5040621;28;20191;-79
2023/06/05 08:08:59;;;;;;;9.53;6.43;;;;;;;;;;5070371;28;20242;-79
2023/06/05 08:11:26;;;;;;;7.17;6.20;;;;;;;;;;5057112;28;20187;-79
2023/06/05 08:13:52;;;;;;;10.67;6.90;;;;;;;;;;5074693;28;20217;-79
2023/06/05 08:16:18;;;;;;;8.10;6.23;;;;;;;;;;5057140;28;20207;-87
2023/06/05 08:18:44;;;;;;;8.47;6.70;;;;;;;;;;5057072;28;20203;-87
2023/06/05 08:21:11;;;;;;;10.77;6.50;;;;;;;;;;5056978;28;20209;-87
2023/06/05 08:23:37;;;;;;;9.23;5.90;;;;;;;;;;5056981;28;20183;-87
2023/06/05 08:26:10;;;;;;;8.17;7.00;;;;;;;;;;5040436;28;20250;-87
2023/06/05 08:28:38;;;;;;;8.90;6.53;;;;;;;;;;5024988;28;20175;-87
2023/06/05 08:31:05;;;;;;;8.57;6.47;;;;;;;;;;5074604;28;20174;-87
2023/06/05 08:33:32;;;;;;;10.57;7.00;;;;;;;;;;5040605;28;20195;-77
2023/06/05 08:35:57;;;;;;;8.83;6.93;;;;;;;;;;5040337;28;20194;-77
2023/06/05 08:38:24;;;;;;;10.97;6.87;;;;;;;;;;5073303;28;20179;-77
2023/06/05 08:40:57;;;;;;;7.93;6.53;;;;;;;;;;5040033;28;20241;-77
2023/06/05 08:43:23;;;;;;;10.70;7.03;;;;;;;;;;5073241;28;20187;-77
2023/06/05 08:45:52;;;;;;;8.37;5.87;;;;;;;;;;5040033;28;20183;-77
2023/06/05 08:48:20;;;;;;;7.87;6.07;;;;;;;;;;5073244;28;20175;-79
2023/06/05 08:50:48;;;;;;;8.90;7.13;;;;;;;;;;5073019;28;20179;-79
2023/06/05 08:53:16;;;;;;;8.97;6.90;;;;;;;;;;5073169;28;20175;-79
2023/06/05 08:55:42;;;;;;;8.30;6.50;;;;;;;;;;5072946;28;20274;-79
2023/06/05 08:58:09;;;;;;;8.50;6.40;;;;;;;;;;5039844;28;20207;-79
2023/06/05 09:00:35;;;;;;;7.83;6.57;;;;;;;;;;5072943;28;20183;-79
2023/06/05 09:03:01;;;;;;;9.37;6.17;;;;;;;;;;5072921;28;20218;-80
2023/06/05 09:05:27;;;;;;;8.63;6.37;;;;;;;;;;5039607;28;20230;-77
2023/06/05 09:07:53;;;;;;;10.73;6.53;;;;;;;;;;5040061;28;20187;-77
2023/06/05 09:10:28;;;;;;;8.27;6.00;;;;;;;;;;5039650;28;20187;-77
2023/06/05 09:12:54;;;;;;;8.97;6.10;;;;;;;;;;5072716;28;20179;-77
2023/06/05 09:15:27;;;;;;;9.17;6.20;;;;;;;;;;5072613;28;20186;-77
2023/06/05 09:18:12;;;;;;;9.47;5.53;;;;;;;;;;5072414;28;20265;-77
2023/06/05 09:20:39;;;;;;;7.67;5.40;;;;;;;;;;5072787;28;20183;-77
2023/06/05 09:23:22;;;;;;;9.47;6.50;;;;;;;;;;5072841;28;20172;-80
2023/06/05 09:25:49;;;;;;;8.88;6.43;;;;;;;;;;5072647;28;20197;-80
2023/06/05 09:28:15;;;;;;;7.50;6.20;;;;;;;;;;5072928;28;20186;-80
2023/06/05 09:31:07;;;;;;;8.88;5.85;;;;;;;;;;5073847;28;20182;-80
2023/06/05 09:33:34;;;;;;;9.02;6.80;;;;;;;;;;5052347;28;20187;-80
2023/06/05 09:36:10;;;;;;;9.70;6.57;;;;;;;;;;5072873;28;20190;-80
2023/06/05 09:38:38;;;;;;;9.13;6.80;;;;;;;;;;5072658;28;20209;-80
2023/06/05 09:41:05;;;;;;;8.40;6.30;;;;;;;;;;5071978;28;20281;-80
2023/06/05 09:43:32;;;;;;;10.02;6.03;;;;;;;;;;5056277;28;20201;-80
2023/06/05 09:45:58;;;;;;;6.40;5.25;;;;;;;;;;5056289;28;20179;-80
2023/06/05 09:48:25;;;;;;;8.00;6.43;;;;;;;;;;5039486;28;20182;-80
2023/06/05 09:50:52;;;;;;;9.95;6.38;;;;;;;;;;5055940;28;20172;-80
2023/06/05 09:53:21;;;;;;;8.82;6.93;;;;;;;;;;5056045;28;20178;-80
2023/06/05 09:55:47;;;;;;;7.22;6.40;;;;;;;;;;5074218;28;20179;-87
2023/06/05 09:58:14;;;;;;;7.93;6.10;;;;;;;;;;5039835;28;20211;-87
2023/06/05 10:00:41;;;;;;;7.53;6.20;;;;;;;;;;5056154;28;20167;-87
2023/06/05 10:03:13;;;;;;;8.10;5.43;;;;;;;;;;5055929;28;20179;-88
2023/06/05 10:05:40;;;;;;;9.15;6.53;;;;;;;;;;5073408;28;20297;-88
2023/06/05 10:08:06;;;;;;;9.20;5.95;;;;;;;;;;5055880;28;20176;-88
2023/06/05 10:10:33;;;;;;;8.13;6.28;;;;;;;;;;5073610;28;20210;-88
2023/06/05 10:13:00;;;;;;;8.77;5.75;;;;;;;;;;5072439;28;20179;-81
2023/06/05 10:15:27;;;;;;;8.65;6.43;;;;;;;;;;5073463;28;20171;-80
2023/06/05 10:17:53;;;;;;;11.43;7.25;;;;;;;;;;5073480;28;20233;-80
2023/06/05 10:20:20;;;;;;;9.50;6.32;;;;;;;;;;5072260;28;20171;-80
2023/06/05 10:22:46;;;;;;;7.40;6.10;;;;;;;;;;5072479;28;20176;-80
2023/06/05 10:25:15;;;;;;;9.13;5.80;;;;;;;;;;5072345;28;20186;-80
2023/06/05 10:27:47;;;;;;;6.90;5.07;;;;;;;;;;5072329;28;20168;-80
2023/06/05 10:30:13;;;;;;;9.13;5.53;;;;;;;;;;5072397;28;20167;-77
2023/06/05 10:32:42;;;;;;;7.20;5.22;;;;;;;;;;5072386;28;20266;-77
2023/06/05 10:35:27;;;;;;;6.22;5.28;;;;;;;;;;5073042;28;20179;-77
2023/06/05 10:37:57;;;;;;;8.13;6.88;;;;;;;;;;5072579;28;20199;-78
2023/06/05 10:40:24;;;;;;;8.02;5.13;;;;;;;;;;5070545;28;20178;-77
2023/06/05 10:42:50;;;;;;;10.45;6.53;;;;;;;;;;5068856;28;20172;-78
2023/06/05 10:45:34;;;;;;;8.30;5.47;;;;;;;;;;5037918;28;20182;-87
2023/06/05 10:48:00;;;;;;;8.70;6.03;;;;;;;;;;5072877;28;20175;-87
2023/06/05 10:50:27;;;;;;;7.28;5.70;;;;;;;;;;5072513;28;20180;-87
2023/06/05 10:52:54;;;;;;;7.03;5.53;;;;;;;;;;5072289;28;20263;-88
2023/06/05 10:55:20;;;;;;;6.65;5.53;;;;;;;;;;5072413;28;20179;-88
2023/06/05 10:58:02;;;;;;;7.57;5.03;;;;;;;;;;5072151;28;20207;-88
2023/06/05 11:00:29;;;;;;;8.55;4.88;;;;;;;;;;5072402;28;20168;-88
2023/06/05 11:02:55;;;;;;;7.03;5.80;;;;;;;;;;5056401;28;20173;-80
2023/06/05 11:05:21;;;;;;;6.50;5.90;;;;;;;;;;5071934;28;20269;-80
2023/06/05 11:07:47;;;;;;;8.73;6.18;;;;;;;;;;5038890;28;20267;-80
2023/06/05 11:10:15;;;;;;;5.90;5.30;;;;;;;;;;5071739;28;20179;-80
2023/06/05 11:12:41;;;;;;;7.07;5.82;;;;;;;;;;5071904;28;20337;-78
2023/06/05 11:15:14;;;;;;;6.28;5.30;;;;;;;;;;5071815;28;20175;-78
2023/06/05 11:17:41;;;;;;;8.73;6.20;;;;;;;;;;5038211;28;20219;-78
2023/06/05 11:20:09;;;;;;;8.23;5.32;;;;;;;;;;5071580;28;20179;-80
2023/06/05 11:25:32;;;;;;;5.60;4.47;;;;;;;;;;5094783;28;20210;-80
2023/06/05 11:28:07;;;;;;;6.20;4.65;;;;;;;;;;5078440;28;20186;-80
2023/06/05 11:30:34;;;;;;;8.43;4.72;;;;;;;;;;5094996;28;20185;-80
2023/06/05 11:33:29;;;;;;;6.20;4.72;;;;;;;;;;5094865;28;20187;-79
2023/06/05 11:35:59;;;;;;;4.70;4.18;;;;;;;;;;5078077;28;20190;-81
2023/06/05 11:38:25;;;;;;;5.90;4.20;;;;;;;;;;5094849;28;20229;-87
2023/06/05 11:40:51;;;;;;;7.50;4.30;;;;;;;;;;5077943;28;20175;-87
2023/06/05 11:43:18;;;;;;;6.60;5.40;;;;;;;;;;5078282;28;20182;-87
2023/06/05 11:45:51;;;;;;;6.13;4.80;;;;;;;;;;5095044;28;20293;-87
2023/06/05 11:48:17;;;;;;;9.52;5.13;;;;;;;;;;5094835;28;20174;-87
2023/06/05 11:50:55;;;;;;;6.72;5.28;;;;;;;;;;5094531;28;20266;-87
2023/06/05 11:53:21;;;;;;;5.00;4.50;;;;;;;;;;5094687;28;20205;-87
2023/06/05 11:58:22;;;;;;;5.75;4.38;;;;;;;;;;5094792;28;20206;-87
2023/06/05 12:00:49;;;;;;;5.95;4.55;;;;;;;;;;5094549;28;20217;-87
2023/06/05 12:03:21;;;;;;;8.52;4.65;;;;;;;;;;5094593;28;20178;-87
2023/06/05 12:05:48;;;;;;;7.68;5.55;;;;;;;;;;5094396;28;20171;-87
2023/06/05 12:08:27;;;;;;;5.15;4.65;;;;;;;;;;5077518;28;20174;-80
2023/06/05 12:10:53;;;;;;;6.72;4.65;;;;;;;;;;5093328;28;20411;-79
2023/06/05 12:13:20;;;;;;;6.38;4.93;;;;;;;;;;5094101;28;20178;-80
2023/06/05 12:16:06;;;;;;;7.15;4.97;;;;;;;;;;5094102;28;20215;-79
2023/06/05 12:18:33;;;;;;;5.30;4.80;;;;;;;;;;5094892;28;20218;-79
2023/06/05 12:20:59;;;;;;;6.57;5.22;;;;;;;;;;5077066;28;20171;-80
2023/06/05 12:23:25;;;;;;;6.28;4.68;;;;;;;;;;5094779;28;20220;-79
2023/06/05 12:26:01;;;;;;;6.53;4.82;;;;;;;;;;5077184;28;20217;-87
2023/06/05 12:28:28;;;;;;;7.30;5.45;;;;;;;;;;5094310;28;20177;-87
2023/06/05 12:30:54;;;;;;;6.80;4.68;;;;;;;;;;5094062;28;20171;-87
2023/06/05 12:33:21;;;;;;;5.78;5.00;;;;;;;;;;5095091;28;20163;-87
2023/06/05 12:35:47;;;;;;;6.40;5.07;;;;;;;;;;5093817;28;20177;-87
2023/06/05 12:38:14;;;;;;;8.00;4.90;;;;;;;;;;5093946;28;20206;-87
2023/06/05 12:40:40;;;;;;;6.65;4.57;;;;;;;;;;5094816;28;20230;-87
2023/06/05 12:43:17;;;;;;;5.60;4.43;;;;;;;;;;5073258;28;20210;-77
2023/06/05 12:45:43;;;;;;;7.18;4.93;;;;;;;;;;5073192;28;20174;-77
2023/06/05 12:48:10;;;;;;;6.30;4.22;;;;;;;;;;5073203;28;20183;-77
2023/06/05 12:50:37;;;;;;;7.35;5.18;;;;;;;;;;5089873;28;20183;-77
2023/06/05 12:53:03;;;;;;;6.32;4.10;;;;;;;;;;5071673;28;20179;-77
2023/06/05 12:55:29;;;;;;;6.65;3.88;;;;;;;;;;5089890;28;20233;-77
2023/06/05 12:57:55;;;;;;;6.80;4.35;;;;;;;;;;5089856;28;20211;-78
2023/06/05 13:00:21;;;;;;;5.50;4.53;;;;;;;;;;5089824;28;20182;-78
2023/06/05 13:02:48;;;;;;;7.53;4.90;;;;;;;;;;5090106;28;20206;-77
2023/06/05 13:05:17;;;;;;;6.15;4.97;;;;;;;;;;5089972;28;20179;-77
2023/06/05 13:07:43;;;;;;;6.65;4.60;;;;;;;;;;5073439;28;20171;-78
2023/06/05 13:10:11;;;;;;;6.15;4.65;;;;;;;;;;5072741;28;20296;-77
2023/06/05 13:12:37;;;;;;;5.32;4.30;;;;;;;;;;5090032;28;20201;-77
2023/06/05 13:15:06;;;;;;;6.60;4.60;;;;;;;;;;5089613;28;20179;-87
2023/06/05 13:17:35;;;;;;;7.43;5.00;;;;;;;;;;5089573;28;20215;-87
2023/06/05 13:20:02;;;;;;;5.32;4.82;;;;;;;;;;5074121;28;20166;-87
2023/06/05 13:22:28;;;;;;;8.18;5.43;;;;;;;;;;5072722;28;20171;-87
2023/06/05 13:24:54;;;;;;;5.82;4.80;;;;;;;;;;5073015;28;20227;-87
2023/06/05 13:27:21;;;;;;;6.47;4.63;;;;;;;;;;5090017;28;20175;-87
2023/06/05 13:29:47;;;;;;;7.97;4.80;;;;;;;;;;5090024;28;20179;-87
2023/06/05 13:32:12;;;;;;;5.13;4.70;;;;;;;;;;5089721;28;20228;-77
2023/06/05 13:34:38;;;;;;;5.07;4.55;;;;;;;;;;5072772;28;20233;-77
2023/06/05 13:37:05;;;;;;;6.18;4.38;;;;;;;;;;5089348;28;20210;-77
2023/06/05 13:39:31;;;;;;;5.22;4.50;;;;;;;;;;5089962;28;20179;-78
2023/06/05 13:41:57;;;;;;;7.20;4.40;;;;;;;;;;5072912;28;20182;-77
2023/06/05 13:44:23;;;;;;;7.03;4.60;;;;;;;;;;5072869;28;20171;-77
2023/06/05 13:46:49;;;;;;;4.85;4.35;;;;;;;;;;5089649;28;20190;-77
2023/06/05 13:49:15;;;;;;;6.47;4.82;;;;;;;;;;5089976;28;20180;-80
2023/06/05 13:51:42;;;;;;;6.60;4.00;;;;;;;;;;5072776;28;20197;-80
2023/06/05 13:54:08;;;;;;;5.82;4.07;;;;;;;;;;5073013;28;20252;-80
2023/06/05 13:56:34;;;;;;;4.55;3.70;;;;;;;;;;5089655;28;20211;-80
2023/06/05 13:59:00;;;;;;;6.07;4.35;;;;;;;;;;5072942;28;20237;-80
2023/06/05 14:01:26;;;;;;;5.05;3.75;;;;;;;;;;5073797;28;20179;-80
2023/06/05 14:03:52;;;;;;;6.50;4.05;;;;;;;;;;5089592;28;20274;-79
2023/06/05 14:06:18;;;;;;;8.02;4.10;;;;;;;;;;5089616;28;20179;-86
2023/06/05 14:08:44;;;;;;;7.45;4.00;;;;;;;;;;5089666;28;20182;-87
2023/06/05 14:11:10;;;;;;;7.25;3.90;;;;;;;;;;5072680;28;20233;-87
2023/06/05 14:13:36;;;;;;;10.32;4.65;;;;;;;;;;5072406;28;20175;-87
2023/06/05 14:16:03;;;;;;;7.97;4.80;;;;;;;;;;5089512;28;20190;-87
2023/06/05 14:18:29;;;;;;;4.93;3.78;;;;;;;;;;5073161;28;20175;-86
2023/06/05 14:20:55;;;;;;;4.80;3.42;;;;;;;;;;5093270;28;20193;-87
2023/06/05 14:23:23;;;;;;;5.85;3.00;;;;;;;;;;5093165;28;20183;-80
2023/06/05 14:25:52;;;;;;;4.57;3.17;;;;;;;;;;5075808;28;20226;-80
2023/06/05 14:28:19;;;;;;;5.45;3.20;;;;;;;;;;5076081;28;20218;-80
2023/06/05 14:30:46;;;;;;;4.55;3.20;;;;;;;;;;5075895;28;20206;-80
2023/06/05 14:33:12;;;;;;;5.40;3.92;;;;;;;;;;5092714;28;20186;-80
2023/06/05 14:35:38;;;;;;;4.03;3.60;;;;;;;;;;5075629;28;20320;-80
2023/06/05 14:38:05;;;;;;;3.85;3.40;;;;;;;;;;5092619;28;20298;-84
2023/06/05 14:40:32;;;;;;;6.53;3.70;;;;;;;;;;5092700;28;20186;-86
2023/06/05 14:42:58;;;;;;;7.72;3.60;;;;;;;;;;5077644;28;20186;-86